sensor_id;sensor_type;location;lat;lon;timestamp;pressure;altitude;pressure_sealevel;temperature;humidity
39105;BME280;46464;51.154;13.812;2022-12-29T00:02:16;98651.63;;;7.41;83.81
39105;BME280;46464;51.154;13.812;2022-12-29T00:04:43;98645.91;;;7.30;85.07
39105;BME280;46464;51.154;13.812;2022-12-29T00:07:10;98630.19;;;7.42;84.03
39105;BME280;46464;51.154;13.812;2022-12-29T00:09:37;98634.50;;;7.45;83.81
39105;BME280;46464;51.154;13.812;2022-12-29T00:12:04;98645.00;;;7.50;83.36
39105;BME280;46464;51.154;13.812;2022-12-29T00:14:30;98645.81;;;7.52;83.74
39105;BME280;46464;51.154;13.812;2022-12-29T00:17:32;98639.66;;;7.50;83.55
39105;BME280;46464;51.154;13.812;2022-12-29T00:19:58;98643.34;;;7.66;82.17
39105;BME280;46464;51.154;13.812;2022-12-29T00:22:43;98647.22;;;7.59;83.32
39105;BME280;46464;51.154;13.812;2022-12-29T00:25:28;98646.66;;;7.71;82.22
39105;BME280;46464;51.154;13.812;2022-12-29T00:28:13;98646.53;;;7.74;83.09
39105;BME280;46464;51.154;13.812;2022-12-29T00:30:58;98626.78;;;7.77;83.50
39105;BME280;46464;51.154;13.812;2022-12-29T00:33:43;98623.38;;;7.73;83.84
39105;BME280;46464;51.154;13.812;2022-12-29T00:38:57;98610.19;;;7.51;85.03
39105;BME280;46464;51.154;13.812;2022-12-29T00:41:43;98620.13;;;7.48;85.23
39105;BME280;46464;51.154;13.812;2022-12-29T00:44:28;98622.19;;;7.62;84.42
39105;BME280;46464;51.154;13.812;2022-12-29T00:46:54;98611.50;;;7.62;84.48
39105;BME280;46464;51.154;13.812;2022-12-29T00:49:21;98619.50;;;7.62;84.34
39105;BME280;46464;51.154;13.812;2022-12-29T00:52:00;98607.09;;;7.61;84.78
39105;BME280;46464;51.154;13.812;2022-12-29T00:54:28;98609.03;;;7.57;84.90
39105;BME280;46464;51.154;13.812;2022-12-29T00:56:55;98609.69;;;7.62;84.98
39105;BME280;46464;51.154;13.812;2022-12-29T00:59:21;98599.84;;;7.63;85.75
39105;BME280;46464;51.154;13.812;2022-12-29T01:01:47;98607.44;;;7.72;85.90
39105;BME280;46464;51.154;13.812;2022-12-29T01:04:14;98601.78;;;7.78;86.14
39105;BME280;46464;51.154;13.812;2022-12-29T01:06:41;98607.47;;;7.89;85.78
39105;BME280;46464;51.154;13.812;2022-12-29T01:09:09;98598.75;;;7.86;86.63
39105;BME280;46464;51.154;13.812;2022-12-29T01:11:55;98604.88;;;7.88;88.00
39105;BME280;46464;51.154;13.812;2022-12-29T01:14:22;98589.69;;;7.88;88.15
39105;BME280;46464;51.154;13.812;2022-12-29T01:16:48;98612.91;;;7.88;89.24
39105;BME280;46464;51.154;13.812;2022-12-29T01:19:15;98608.63;;;7.84;89.96
39105;BME280;46464;51.154;13.812;2022-12-29T01:21:43;98604.25;;;7.83;90.45
39105;BME280;46464;51.154;13.812;2022-12-29T01:24:09;98603.78;;;7.92;90.53
39105;BME280;46464;51.154;13.812;2022-12-29T01:26:36;98603.88;;;7.90;90.03
39105;BME280;46464;51.154;13.812;2022-12-29T01:29:02;98604.50;;;7.96;91.02
39105;BME280;46464;51.154;13.812;2022-12-29T01:31:29;98600.59;;;8.03;89.94
39105;BME280;46464;51.154;13.812;2022-12-29T01:33:55;98598.66;;;7.87;91.14
39105;BME280;46464;51.154;13.812;2022-12-29T01:36:22;98599.38;;;7.91;90.61
39105;BME280;46464;51.154;13.812;2022-12-29T01:38:48;98596.94;;;7.86;91.37
39105;BME280;46464;51.154;13.812;2022-12-29T01:41:15;98595.97;;;7.87;91.28
39105;BME280;46464;51.154;13.812;2022-12-29T01:43:49;98599.44;;;7.89;91.68
39105;BME280;46464;51.154;13.812;2022-12-29T01:48:44;98597.06;;;7.83;92.85
39105;BME280;46464;51.154;13.812;2022-12-29T01:51:11;98591.00;;;7.80;93.94
39105;BME280;46464;51.154;13.812;2022-12-29T01:53:37;98590.66;;;7.68;94.29
39105;BME280;46464;51.154;13.812;2022-12-29T01:56:05;98595.50;;;7.60;95.26
39105;BME280;46464;51.154;13.812;2022-12-29T01:58:34;98594.13;;;7.51;96.28
39105;BME280;46464;51.154;13.812;2022-12-29T02:01:02;98587.13;;;7.49;96.90
39105;BME280;46464;51.154;13.812;2022-12-29T02:03:29;98592.56;;;7.47;97.84
39105;BME280;46464;51.154;13.812;2022-12-29T02:06:00;98576.75;;;7.42;98.04
39105;BME280;46464;51.154;13.812;2022-12-29T02:08:28;98585.84;;;7.38;98.55
39105;BME280;46464;51.154;13.812;2022-12-29T02:10:55;98581.28;;;7.40;99.12
39105;BME280;46464;51.154;13.812;2022-12-29T02:13:25;98569.44;;;7.46;99.29
39105;BME280;46464;51.154;13.812;2022-12-29T02:24:05;98566.13;;;7.22;100.00
39105;BME280;46464;51.154;13.812;2022-12-29T02:29:20;98566.13;;;7.22;100.00
39105;BME280;46464;51.154;13.812;2022-12-29T02:32:03;98557.88;;;7.26;100.00
39105;BME280;46464;51.154;13.812;2022-12-29T02:34:41;98558.78;;;7.27;100.00
39105;BME280;46464;51.154;13.812;2022-12-29T02:37:20;98559.63;;;7.27;100.00
39105;BME280;46464;51.154;13.812;2022-12-29T02:42:33;98559.25;;;7.35;100.00
39105;BME280;46464;51.154;13.812;2022-12-29T02:50:23;98572.69;;;7.53;98.55
39105;BME280;46464;51.154;13.812;2022-12-29T02:52:58;98558.72;;;7.65;97.89
39105;BME280;46464;51.154;13.812;2022-12-29T02:55:26;98565.88;;;7.65;97.70
39105;BME280;46464;51.154;13.812;2022-12-29T03:00:38;98558.16;;;7.58;98.21
39105;BME280;46464;51.154;13.812;2022-12-29T03:03:15;98547.97;;;7.67;98.24
39105;BME280;46464;51.154;13.812;2022-12-29T03:10:48;98543.28;;;7.72;97.36
39105;BME280;46464;51.154;13.812;2022-12-29T03:16:14;98555.66;;;7.92;95.86
39105;BME280;46464;51.154;13.812;2022-12-29T03:24:17;98545.84;;;7.93;95.27
39105;BME280;46464;51.154;13.812;2022-12-29T03:26:45;98544.94;;;7.92;95.37
39105;BME280;46464;51.154;13.812;2022-12-29T03:29:13;98546.53;;;7.96;94.61
39105;BME280;46464;51.154;13.812;2022-12-29T03:31:43;98544.97;;;8.10;93.56
39105;BME280;46464;51.154;13.812;2022-12-29T03:34:10;98540.72;;;8.05;94.03
39105;BME280;46464;51.154;13.812;2022-12-29T03:36:42;98540.81;;;8.04;95.06
39105;BME280;46464;51.154;13.812;2022-12-29T03:39:10;98533.63;;;8.04;93.89
39105;BME280;46464;51.154;13.812;2022-12-29T03:41:38;98532.13;;;7.99;94.94
39105;BME280;46464;51.154;13.812;2022-12-29T03:44:07;98539.59;;;7.92;95.08
39105;BME280;46464;51.154;13.812;2022-12-29T03:46:33;98525.84;;;8.00;94.38
39105;BME280;46464;51.154;13.812;2022-12-29T03:49:00;98523.16;;;8.00;94.46
39105;BME280;46464;51.154;13.812;2022-12-29T03:51:26;98517.28;;;7.93;95.19
39105;BME280;46464;51.154;13.812;2022-12-29T03:53:52;98509.97;;;7.97;94.83
39105;BME280;46464;51.154;13.812;2022-12-29T03:56:19;98515.00;;;8.03;94.21
39105;BME280;46464;51.154;13.812;2022-12-29T03:58:45;98515.72;;;8.06;94.17
39105;BME280;46464;51.154;13.812;2022-12-29T04:01:11;98512.25;;;8.04;94.69
39105;BME280;46464;51.154;13.812;2022-12-29T04:03:39;98513.97;;;8.23;93.38
39105;BME280;46464;51.154;13.812;2022-12-29T04:06:06;98504.91;;;8.26;92.89
39105;BME280;46464;51.154;13.812;2022-12-29T04:08:33;98506.88;;;8.39;91.73
39105;BME280;46464;51.154;13.812;2022-12-29T04:11:00;98501.78;;;8.52;90.55
39105;BME280;46464;51.154;13.812;2022-12-29T04:13:26;98500.84;;;8.53;90.86
39105;BME280;46464;51.154;13.812;2022-12-29T04:15:52;98509.06;;;8.66;89.67
39105;BME280;46464;51.154;13.812;2022-12-29T04:18:19;98514.56;;;8.63;89.89
39105;BME280;46464;51.154;13.812;2022-12-29T04:20:45;98515.38;;;8.65;90.10
39105;BME280;46464;51.154;13.812;2022-12-29T04:23:32;98510.56;;;8.72;89.88
39105;BME280;46464;51.154;13.812;2022-12-29T04:25:59;98500.63;;;8.74;90.48
39105;BME280;46464;51.154;13.812;2022-12-29T04:28:26;98511.03;;;8.96;87.55
39105;BME280;46464;51.154;13.812;2022-12-29T04:30:53;98512.19;;;9.08;87.88
39105;BME280;46464;51.154;13.812;2022-12-29T04:33:20;98512.09;;;9.10;87.82
39105;BME280;46464;51.154;13.812;2022-12-29T04:35:47;98507.59;;;9.26;85.95
39105;BME280;46464;51.154;13.812;2022-12-29T04:38:13;98508.22;;;9.31;85.80
39105;BME280;46464;51.154;13.812;2022-12-29T04:40:41;98503.97;;;9.27;86.38
39105;BME280;46464;51.154;13.812;2022-12-29T04:43:07;98499.75;;;9.23;87.13
39105;BME280;46464;51.154;13.812;2022-12-29T04:45:34;98499.56;;;9.26;87.30
39105;BME280;46464;51.154;13.812;2022-12-29T04:48:01;98514.19;;;9.20;88.18
39105;BME280;46464;51.154;13.812;2022-12-29T04:50:27;98507.53;;;9.60;85.06
39105;BME280;46464;51.154;13.812;2022-12-29T04:52:54;98502.34;;;9.57;86.23
39105;BME280;46464;51.154;13.812;2022-12-29T04:55:20;98502.00;;;9.47;85.77
39105;BME280;46464;51.154;13.812;2022-12-29T04:57:46;98510.47;;;9.55;85.24
39105;BME280;46464;51.154;13.812;2022-12-29T05:00:13;98509.44;;;9.58;85.77
39105;BME280;46464;51.154;13.812;2022-12-29T05:02:39;98509.00;;;9.49;89.03
39105;BME280;46464;51.154;13.812;2022-12-29T05:05:06;98509.50;;;9.40;89.54
39105;BME280;46464;51.154;13.812;2022-12-29T05:07:33;98516.53;;;9.27;91.98
39105;BME280;46464;51.154;13.812;2022-12-29T05:09:59;98515.31;;;9.32;92.03
39105;BME280;46464;51.154;13.812;2022-12-29T05:12:29;98533.56;;;9.26;93.25
39105;BME280;46464;51.154;13.812;2022-12-29T05:14:55;98514.25;;;9.19;94.41
39105;BME280;46464;51.154;13.812;2022-12-29T05:17:22;98531.13;;;9.21;94.22
39105;BME280;46464;51.154;13.812;2022-12-29T05:19:48;98521.34;;;9.20;93.14
39105;BME280;46464;51.154;13.812;2022-12-29T05:22:14;98517.97;;;9.16;93.64
39105;BME280;46464;51.154;13.812;2022-12-29T05:24:43;98516.69;;;9.24;93.51
39105;BME280;46464;51.154;13.812;2022-12-29T05:27:09;98515.13;;;9.19;93.33
39105;BME280;46464;51.154;13.812;2022-12-29T05:29:36;98513.50;;;9.17;94.61
39105;BME280;46464;51.154;13.812;2022-12-29T05:32:02;98511.16;;;9.11;96.43
39105;BME280;46464;51.154;13.812;2022-12-29T05:34:29;98517.63;;;8.91;98.76
39105;BME280;46464;51.154;13.812;2022-12-29T05:36:55;98513.19;;;8.90;98.00
39105;BME280;46464;51.154;13.812;2022-12-29T05:39:22;98518.88;;;8.83;98.18
39105;BME280;46464;51.154;13.812;2022-12-29T05:41:48;98507.66;;;8.93;96.29
39105;BME280;46464;51.154;13.812;2022-12-29T05:44:15;98503.59;;;8.85;96.91
39105;BME280;46464;51.154;13.812;2022-12-29T05:46:43;98510.16;;;8.80;97.49
39105;BME280;46464;51.154;13.812;2022-12-29T05:49:10;98512.41;;;8.54;100.00
39105;BME280;46464;51.154;13.812;2022-12-29T05:51:36;98507.53;;;8.62;97.36
39105;BME280;46464;51.154;13.812;2022-12-29T05:54:02;98506.22;;;8.69;97.28
39105;BME280;46464;51.154;13.812;2022-12-29T05:56:29;98507.00;;;8.71;96.39
39105;BME280;46464;51.154;13.812;2022-12-29T05:58:55;98513.16;;;8.74;96.79
39105;BME280;46464;51.154;13.812;2022-12-29T06:01:22;98504.66;;;8.65;98.53
39105;BME280;46464;51.154;13.812;2022-12-29T06:03:48;98511.00;;;8.80;95.79
39105;BME280;46464;51.154;13.812;2022-12-29T06:06:15;98509.13;;;8.82;95.61
39105;BME280;46464;51.154;13.812;2022-12-29T06:08:42;98508.09;;;8.85;95.33
39105;BME280;46464;51.154;13.812;2022-12-29T06:11:08;98510.25;;;8.94;93.94
39105;BME280;46464;51.154;13.812;2022-12-29T06:13:35;98510.34;;;8.93;94.44
39105;BME280;46464;51.154;13.812;2022-12-29T06:16:01;98499.19;;;8.84;94.73
39105;BME280;46464;51.154;13.812;2022-12-29T06:18:28;98495.88;;;8.79;95.11
39105;BME280;46464;51.154;13.812;2022-12-29T06:20:59;98482.84;;;8.89;94.29
39105;BME280;46464;51.154;13.812;2022-12-29T06:23:25;98488.72;;;8.80;95.82
39105;BME280;46464;51.154;13.812;2022-12-29T06:25:52;98489.00;;;8.91;94.03
39105;BME280;46464;51.154;13.812;2022-12-29T06:28:18;98492.50;;;9.09;92.89
39105;BME280;46464;51.154;13.812;2022-12-29T06:30:46;98493.34;;;9.10;93.75
39105;BME280;46464;51.154;13.812;2022-12-29T06:33:12;98482.78;;;8.91;94.42
39105;BME280;46464;51.154;13.812;2022-12-29T06:35:39;98481.31;;;9.01;93.66
39105;BME280;46464;51.154;13.812;2022-12-29T06:38:06;98487.28;;;9.06;92.77
39105;BME280;46464;51.154;13.812;2022-12-29T06:40:32;98477.38;;;9.08;93.07
39105;BME280;46464;51.154;13.812;2022-12-29T06:42:58;98476.66;;;8.88;95.21
39105;BME280;46464;51.154;13.812;2022-12-29T06:45:25;98476.19;;;8.80;95.86
39105;BME280;46464;51.154;13.812;2022-12-29T06:47:51;98476.31;;;8.95;94.13
39105;BME280;46464;51.154;13.812;2022-12-29T06:50:18;98476.41;;;9.09;91.95
39105;BME280;46464;51.154;13.812;2022-12-29T06:52:44;98477.88;;;9.15;91.46
39105;BME280;46464;51.154;13.812;2022-12-29T06:55:10;98479.34;;;9.20;91.17
39105;BME280;46464;51.154;13.812;2022-12-29T06:57:37;98481.84;;;9.08;92.28
39105;BME280;46464;51.154;13.812;2022-12-29T07:00:04;98482.03;;;9.04;93.41
39105;BME280;46464;51.154;13.812;2022-12-29T07:02:31;98482.28;;;9.00;93.29
39105;BME280;46464;51.154;13.812;2022-12-29T07:04:57;98488.84;;;9.10;91.26
39105;BME280;46464;51.154;13.812;2022-12-29T07:07:24;98468.88;;;9.16;91.09
39105;BME280;46464;51.154;13.812;2022-12-29T07:09:50;98480.66;;;9.13;92.41
39105;BME280;46464;51.154;13.812;2022-12-29T07:12:17;98482.72;;;9.08;92.21
39105;BME280;46464;51.154;13.812;2022-12-29T07:14:43;98479.69;;;9.14;90.17
39105;BME280;46464;51.154;13.812;2022-12-29T07:17:10;98488.56;;;8.99;93.04
39105;BME280;46464;51.154;13.812;2022-12-29T07:19:36;98499.66;;;9.09;90.10
39105;BME280;46464;51.154;13.812;2022-12-29T07:22:03;98503.81;;;9.14;90.54
39105;BME280;46464;51.154;13.812;2022-12-29T07:24:30;98502.66;;;9.02;90.79
39105;BME280;46464;51.154;13.812;2022-12-29T07:26:56;98502.00;;;9.15;90.32
39105;BME280;46464;51.154;13.812;2022-12-29T07:29:22;98507.38;;;9.31;88.45
39105;BME280;46464;51.154;13.812;2022-12-29T07:31:49;98500.94;;;9.17;91.93
39105;BME280;46464;51.154;13.812;2022-12-29T07:34:18;98513.06;;;9.25;89.20
39105;BME280;46464;51.154;13.812;2022-12-29T07:36:45;98513.31;;;9.36;88.14
39105;BME280;46464;51.154;13.812;2022-12-29T07:39:11;98518.09;;;9.31;88.04
39105;BME280;46464;51.154;13.812;2022-12-29T07:41:38;98527.28;;;9.43;87.68
39105;BME280;46464;51.154;13.812;2022-12-29T07:44:04;98510.19;;;9.28;89.98
39105;BME280;46464;51.154;13.812;2022-12-29T07:46:30;98496.88;;;9.26;89.20
39105;BME280;46464;51.154;13.812;2022-12-29T07:49:17;98493.69;;;9.19;91.31
39105;BME280;46464;51.154;13.812;2022-12-29T07:51:44;98491.19;;;9.16;91.08
39105;BME280;46464;51.154;13.812;2022-12-29T07:54:10;98504.78;;;9.29;88.97
39105;BME280;46464;51.154;13.812;2022-12-29T07:56:38;98502.34;;;9.25;89.71
39105;BME280;46464;51.154;13.812;2022-12-29T07:59:05;98515.22;;;9.34;89.48
39105;BME280;46464;51.154;13.812;2022-12-29T08:01:31;98520.06;;;9.43;89.13
39105;BME280;46464;51.154;13.812;2022-12-29T08:03:58;98506.22;;;9.35;91.45
39105;BME280;46464;51.154;13.812;2022-12-29T08:06:24;98508.41;;;9.28;90.76
39105;BME280;46464;51.154;13.812;2022-12-29T08:08:51;98515.22;;;9.34;91.59
39105;BME280;46464;51.154;13.812;2022-12-29T08:11:17;98521.91;;;9.43;90.68
39105;BME280;46464;51.154;13.812;2022-12-29T08:13:44;98525.09;;;9.33;91.37
39105;BME280;46464;51.154;13.812;2022-12-29T08:16:10;98532.00;;;9.37;90.53
39105;BME280;46464;51.154;13.812;2022-12-29T08:18:36;98536.16;;;9.43;88.96
39105;BME280;46464;51.154;13.812;2022-12-29T08:21:03;98525.94;;;9.34;92.31
39105;BME280;46464;51.154;13.812;2022-12-29T08:23:30;98537.56;;;9.50;88.25
39105;BME280;46464;51.154;13.812;2022-12-29T08:26:00;98540.38;;;9.63;87.54
39105;BME280;46464;51.154;13.812;2022-12-29T08:28:27;98542.03;;;9.66;88.82
39105;BME280;46464;51.154;13.812;2022-12-29T08:30:53;98537.09;;;9.74;88.35
39105;BME280;46464;51.154;13.812;2022-12-29T08:33:20;98556.22;;;9.68;88.79
39105;BME280;46464;51.154;13.812;2022-12-29T08:35:46;98543.06;;;9.79;87.12
39105;BME280;46464;51.154;13.812;2022-12-29T08:38:12;98544.47;;;9.71;86.70
39105;BME280;46464;51.154;13.812;2022-12-29T08:40:39;98546.97;;;9.74;86.39
39105;BME280;46464;51.154;13.812;2022-12-29T08:43:05;98544.56;;;9.69;86.11
39105;BME280;46464;51.154;13.812;2022-12-29T08:45:33;98542.31;;;9.61;87.43
39105;BME280;46464;51.154;13.812;2022-12-29T08:48:00;98540.66;;;9.43;89.56
39105;BME280;46464;51.154;13.812;2022-12-29T08:50:26;98530.53;;;9.32;89.35
39105;BME280;46464;51.154;13.812;2022-12-29T08:52:53;98533.56;;;9.26;89.14
39105;BME280;46464;51.154;13.812;2022-12-29T08:55:19;98518.94;;;9.31;88.20
39105;BME280;46464;51.154;13.812;2022-12-29T08:57:46;98517.28;;;9.13;90.00
39105;BME280;46464;51.154;13.812;2022-12-29T09:00:12;98519.56;;;9.20;87.36
39105;BME280;46464;51.154;13.812;2022-12-29T09:02:41;98512.97;;;9.26;86.34
39105;BME280;46464;51.154;13.812;2022-12-29T09:05:08;98508.22;;;9.15;89.38
39105;BME280;46464;51.154;13.812;2022-12-29T09:07:35;98509.50;;;9.08;89.45
39105;BME280;46464;51.154;13.812;2022-12-29T09:10:01;98503.63;;;9.17;87.54
39105;BME280;46464;51.154;13.812;2022-12-29T09:12:27;98516.78;;;9.22;87.22
39105;BME280;46464;51.154;13.812;2022-12-29T09:15:01;98527.06;;;9.46;84.51
39105;BME280;46464;51.154;13.812;2022-12-29T09:17:28;98526.47;;;9.57;84.27
39105;BME280;46464;51.154;13.812;2022-12-29T09:20:13;98516.59;;;9.57;85.48
39105;BME280;46464;51.154;13.812;2022-12-29T09:22:41;98519.81;;;9.64;83.61
39105;BME280;46464;51.154;13.812;2022-12-29T09:25:07;98516.84;;;9.68;84.34
39105;BME280;46464;51.154;13.812;2022-12-29T09:27:35;98506.75;;;9.74;83.87
39105;BME280;46464;51.154;13.812;2022-12-29T09:30:05;98520.66;;;9.80;82.87
39105;BME280;46464;51.154;13.812;2022-12-29T09:32:32;98515.25;;;9.96;81.07
39105;BME280;46464;51.154;13.812;2022-12-29T09:35:04;98521.75;;;9.92;83.45
39105;BME280;46464;51.154;13.812;2022-12-29T09:37:30;98508.38;;;10.07;81.08
39105;BME280;46464;51.154;13.812;2022-12-29T09:39:57;98514.72;;;10.06;81.43
39105;BME280;46464;51.154;13.812;2022-12-29T09:42:25;98533.34;;;10.23;79.55
39105;BME280;46464;51.154;13.812;2022-12-29T09:47:39;98514.66;;;10.38;79.42
39105;BME280;46464;51.154;13.812;2022-12-29T09:52:48;98522.91;;;10.49;79.46
39105;BME280;46464;51.154;13.812;2022-12-29T09:55:17;98518.59;;;10.46;80.17
39105;BME280;46464;51.154;13.812;2022-12-29T09:57:49;98514.59;;;10.54;78.95
39105;BME280;46464;51.154;13.812;2022-12-29T10:00:23;98510.38;;;10.64;79.30
39105;BME280;46464;51.154;13.812;2022-12-29T10:03:12;98526.09;;;10.70;78.76
39105;BME280;46464;51.154;13.812;2022-12-29T10:08:15;98517.75;;;11.04;78.12
39105;BME280;46464;51.154;13.812;2022-12-29T10:13:27;98512.38;;;11.33;73.93
39105;BME280;46464;51.154;13.812;2022-12-29T10:18:32;98516.28;;;11.41;74.07
39105;BME280;46464;51.154;13.812;2022-12-29T10:23:53;98508.91;;;11.45;73.99
39105;BME280;46464;51.154;13.812;2022-12-29T10:26:21;98512.16;;;11.50;73.79
39105;BME280;46464;51.154;13.812;2022-12-29T10:28:50;98503.56;;;11.58;72.18
39105;BME280;46464;51.154;13.812;2022-12-29T10:31:20;98502.72;;;11.57;71.82
39105;BME280;46464;51.154;13.812;2022-12-29T10:33:51;98515.00;;;11.61;72.40
39105;BME280;46464;51.154;13.812;2022-12-29T10:39:04;98500.38;;;11.66;72.82
39105;BME280;46464;51.154;13.812;2022-12-29T10:41:38;98502.00;;;11.68;73.67
39105;BME280;46464;51.154;13.812;2022-12-29T10:44:07;98499.56;;;11.78;72.53
39105;BME280;46464;51.154;13.812;2022-12-29T10:46:35;98504.13;;;11.90;70.70
39105;BME280;46464;51.154;13.812;2022-12-29T10:49:02;98503.94;;;11.93;71.68
39105;BME280;46464;51.154;13.812;2022-12-29T10:51:33;98496.06;;;11.90;70.80
39105;BME280;46464;51.154;13.812;2022-12-29T10:54:20;98487.31;;;11.87;69.86
39105;BME280;46464;51.154;13.812;2022-12-29T11:02:35;98473.38;;;11.67;71.88
39105;BME280;46464;51.154;13.812;2022-12-29T11:07:39;98481.69;;;11.77;73.10
39105;BME280;46464;51.154;13.812;2022-12-29T11:10:15;98468.16;;;11.78;74.36
39105;BME280;46464;51.154;13.812;2022-12-29T11:12:46;98477.59;;;11.71;73.12
39105;BME280;46464;51.154;13.812;2022-12-29T11:15:20;98477.06;;;11.79;72.98
39105;BME280;46464;51.154;13.812;2022-12-29T11:17:48;98472.06;;;11.87;70.11
39105;BME280;46464;51.154;13.812;2022-12-29T11:20:19;98468.47;;;11.87;71.15
39105;BME280;46464;51.154;13.812;2022-12-29T11:22:46;98466.00;;;11.84;72.71
39105;BME280;46464;51.154;13.812;2022-12-29T11:25:12;98467.69;;;11.72;72.36
39105;BME280;46464;51.154;13.812;2022-12-29T11:27:39;98471.91;;;11.76;71.13
39105;BME280;46464;51.154;13.812;2022-12-29T11:30:12;98481.25;;;11.70;71.38
39105;BME280;46464;51.154;13.812;2022-12-29T11:32:51;98475.09;;;11.68;72.22
39105;BME280;46464;51.154;13.812;2022-12-29T11:38:03;98467.34;;;11.63;72.77
39105;BME280;46464;51.154;13.812;2022-12-29T11:40:30;98473.94;;;11.72;71.63
39105;BME280;46464;51.154;13.812;2022-12-29T11:42:58;98469.88;;;11.79;72.13
39105;BME280;46464;51.154;13.812;2022-12-29T11:45:26;98476.31;;;11.77;71.69
39105;BME280;46464;51.154;13.812;2022-12-29T11:47:55;98474.50;;;11.77;71.67
39105;BME280;46464;51.154;13.812;2022-12-29T11:50:23;98468.22;;;11.77;73.18
39105;BME280;46464;51.154;13.812;2022-12-29T11:52:56;98469.63;;;11.70;72.37
39105;BME280;46464;51.154;13.812;2022-12-29T11:55:24;98469.53;;;11.71;72.56
39105;BME280;46464;51.154;13.812;2022-12-29T11:57:51;98459.41;;;11.75;73.18
39105;BME280;46464;51.154;13.812;2022-12-29T12:00:19;98466.97;;;11.83;72.21
39105;BME280;46464;51.154;13.812;2022-12-29T12:07:43;98465.00;;;11.72;72.98
39105;BME280;46464;51.154;13.812;2022-12-29T12:10:13;98462.22;;;11.73;72.75
39105;BME280;46464;51.154;13.812;2022-12-29T12:12:43;98465.09;;;11.70;72.95
39105;BME280;46464;51.154;13.812;2022-12-29T12:15:15;98461.03;;;11.77;73.29
39105;BME280;46464;51.154;13.812;2022-12-29T12:17:47;98452.75;;;11.81;72.55
39105;BME280;46464;51.154;13.812;2022-12-29T12:20:22;98452.56;;;11.84;71.80
39105;BME280;46464;51.154;13.812;2022-12-29T12:22:55;98443.19;;;11.89;71.35
39105;BME280;46464;51.154;13.812;2022-12-29T12:25:27;98438.69;;;11.90;72.71
39105;BME280;46464;51.154;13.812;2022-12-29T12:28:11;98440.41;;;11.91;71.73
39105;BME280;46464;51.154;13.812;2022-12-29T12:30:42;98456.56;;;11.91;72.12
39105;BME280;46464;51.154;13.812;2022-12-29T12:35:53;98453.00;;;11.90;72.06
39105;BME280;46464;51.154;13.812;2022-12-29T12:41:13;98442.38;;;12.02;71.41
39105;BME280;46464;51.154;13.812;2022-12-29T12:43:51;98448.13;;;12.10;70.87
39105;BME280;46464;51.154;13.812;2022-12-29T12:49:01;98448.34;;;12.20;69.63
39105;BME280;46464;51.154;13.812;2022-12-29T12:59:40;98433.16;;;12.19;69.20
39105;BME280;46464;51.154;13.812;2022-12-29T13:02:20;98426.03;;;12.18;69.05
39105;BME280;46464;51.154;13.812;2022-12-29T13:12:48;98426.16;;;12.29;68.69
39105;BME280;46464;51.154;13.812;2022-12-29T13:15:39;98429.50;;;12.33;67.80
39105;BME280;46464;51.154;13.812;2022-12-29T13:18:41;98437.69;;;12.31;67.74
39105;BME280;46464;51.154;13.812;2022-12-29T13:23:50;98446.53;;;12.33;67.00
39105;BME280;46464;51.154;13.812;2022-12-29T13:26:24;98440.19;;;12.34;67.70
39105;BME280;46464;51.154;13.812;2022-12-29T13:28:55;98433.38;;;12.29;69.82
39105;BME280;46464;51.154;13.812;2022-12-29T13:31:30;98437.16;;;12.26;67.78
39105;BME280;46464;51.154;13.812;2022-12-29T13:34:05;98448.47;;;12.31;67.04
39105;BME280;46464;51.154;13.812;2022-12-29T13:36:37;98449.34;;;12.32;66.99
39105;BME280;46464;51.154;13.812;2022-12-29T13:39:19;98452.34;;;12.27;67.48
39105;BME280;46464;51.154;13.812;2022-12-29T13:41:51;98453.50;;;12.23;67.17
39105;BME280;46464;51.154;13.812;2022-12-29T13:44:21;98445.84;;;12.17;68.66
39105;BME280;46464;51.154;13.812;2022-12-29T13:46:48;98440.59;;;12.15;67.95
39105;BME280;46464;51.154;13.812;2022-12-29T13:51:49;98441.97;;;12.08;69.17
39105;BME280;46464;51.154;13.812;2022-12-29T13:54:27;98453.19;;;12.15;67.31
39105;BME280;46464;51.154;13.812;2022-12-29T13:57:12;98450.38;;;12.16;67.56
39105;BME280;46464;51.154;13.812;2022-12-29T14:02:31;98459.19;;;12.05;68.25
39105;BME280;46464;51.154;13.812;2022-12-29T14:05:05;98456.41;;;12.07;68.04
39105;BME280;46464;51.154;13.812;2022-12-29T14:08:04;98469.97;;;12.05;68.60
39105;BME280;46464;51.154;13.812;2022-12-29T14:10:37;98460.31;;;11.88;71.01
39105;BME280;46464;51.154;13.812;2022-12-29T14:15:38;98462.00;;;12.04;68.43
39105;BME280;46464;51.154;13.812;2022-12-29T14:18:11;98463.06;;;12.01;68.54
39105;BME280;46464;51.154;13.812;2022-12-29T14:20:39;98460.56;;;11.98;68.71
39105;BME280;46464;51.154;13.812;2022-12-29T14:30:59;98458.00;;;11.97;68.65
39105;BME280;46464;51.154;13.812;2022-12-29T14:33:27;98476.13;;;12.07;67.78
39105;BME280;46464;51.154;13.812;2022-12-29T14:35:54;98479.88;;;12.05;68.23
39105;BME280;46464;51.154;13.812;2022-12-29T14:38:30;98482.97;;;11.99;68.67
39105;BME280;46464;51.154;13.812;2022-12-29T14:44:19;98470.59;;;11.96;69.65
39105;BME280;46464;51.154;13.812;2022-12-29T14:46:54;98477.03;;;11.93;68.79
39105;BME280;46464;51.154;13.812;2022-12-29T14:49:23;98487.47;;;11.98;68.23
39105;BME280;46464;51.154;13.812;2022-12-29T14:51:52;98484.59;;;12.01;68.31
39105;BME280;46464;51.154;13.812;2022-12-29T14:57:06;98486.81;;;11.94;68.71
39105;BME280;46464;51.154;13.812;2022-12-29T14:59:34;98487.41;;;12.00;68.67
39105;BME280;46464;51.154;13.812;2022-12-29T15:02:12;98486.91;;;11.93;69.04
39105;BME280;46464;51.154;13.812;2022-12-29T15:04:41;98501.66;;;11.87;69.56
39105;BME280;46464;51.154;13.812;2022-12-29T15:07:09;98500.22;;;11.82;69.73
39105;BME280;46464;51.154;13.812;2022-12-29T15:09:37;98497.41;;;11.83;69.39
39105;BME280;46464;51.154;13.812;2022-12-29T15:14:52;98505.31;;;11.86;69.20
39105;BME280;46464;51.154;13.812;2022-12-29T15:17:29;98506.38;;;11.84;69.35